createdAt,value
2018-05-04T00:01:27.090Z,16.77
2018-05-04T00:03:53.927Z,16.63
2018-05-04T00:06:20.829Z,15.83
2018-05-04T00:08:47.205Z,16.57
2018-05-04T00:13:51.339Z,16.83
2018-05-04T00:16:28.836Z,16.27
2018-05-04T00:18:55.245Z,15.80
2018-05-04T00:21:21.984Z,15.83
2018-05-04T00:23:48.286Z,16.37
2018-05-04T00:26:14.923Z,16.80
2018-05-04T00:28:45.064Z,16.27
2018-05-04T00:31:11.501Z,16.47
2018-05-04T00:33:53.469Z,16.00
2018-05-04T00:36:21.776Z,16.37
2018-05-04T00:38:48.594Z,18.57
2018-05-04T00:41:15.008Z,15.47
2018-05-04T00:43:44.863Z,15.70
2018-05-04T00:46:11.746Z,17.37
2018-05-04T00:48:38.377Z,15.83
2018-05-04T00:51:05.723Z,15.80
2018-05-04T00:53:32.002Z,16.37
2018-05-04T00:55:58.539Z,14.90
2018-05-04T00:58:25.699Z,14.60
2018-05-04T01:00:52.181Z,15.57
2018-05-04T01:03:26.714Z,15.37
2018-05-04T01:05:53.394Z,14.03
2018-05-04T01:08:19.854Z,14.27
2018-05-04T01:10:53.971Z,14.50
2018-05-04T01:13:24.088Z,12.97
2018-05-04T01:15:50.471Z,13.33
2018-05-04T01:18:17.264Z,13.77
2018-05-04T01:20:43.626Z,14.00
2018-05-04T01:23:10.059Z,13.73
2018-05-04T01:25:36.619Z,14.43
2018-05-04T01:28:03.074Z,13.60
2018-05-04T01:30:29.698Z,13.67
2018-05-04T01:32:55.970Z,13.23
2018-05-04T01:35:22.272Z,12.90
2018-05-04T01:37:48.675Z,13.53
2018-05-04T01:40:15.059Z,12.80
2018-05-04T01:42:42.395Z,12.30
2018-05-04T01:45:08.900Z,13.20
2018-05-04T01:47:35.255Z,13.40
2018-05-04T01:50:01.661Z,12.87
2018-05-04T01:52:28.076Z,13.10
2018-05-04T01:54:54.416Z,13.53
2018-05-04T01:57:21.002Z,12.10
2018-05-04T01:59:47.580Z,12.07
2018-05-04T02:02:14.285Z,13.90
2018-05-04T02:07:33.546Z,10.93
2018-05-04T02:10:00.051Z,13.20
2018-05-04T02:12:26.380Z,13.57
2018-05-04T02:14:53.035Z,12.27
2018-05-04T02:17:25.909Z,12.50
2018-05-04T02:19:52.182Z,12.40
2018-05-04T02:22:36.946Z,13.20
2018-05-04T02:25:03.268Z,11.77
2018-05-04T02:27:29.429Z,13.17
2018-05-04T02:29:55.909Z,12.97
2018-05-04T02:32:22.536Z,12.57
2018-05-04T02:34:58.441Z,12.10
2018-05-04T02:37:24.603Z,12.87
2018-05-04T02:39:50.936Z,13.27
2018-05-04T02:42:17.164Z,13.13
2018-05-04T02:44:43.598Z,13.30
2018-05-04T02:47:20.331Z,13.27
2018-05-04T02:49:50.106Z,11.93
2018-05-04T02:52:17.409Z,13.37
2018-05-04T02:54:53.970Z,13.77
2018-05-04T02:57:20.132Z,10.37
2018-05-04T02:59:46.409Z,12.13
2018-05-04T03:02:12.541Z,14.43
2018-05-04T03:04:38.929Z,14.90
2018-05-04T03:07:09.108Z,13.17
2018-05-04T03:09:35.433Z,14.63
2018-05-04T03:12:02.046Z,13.87
2018-05-04T03:14:34.604Z,13.60
2018-05-04T03:17:17.872Z,15.03
2018-05-04T03:19:44.646Z,12.53
2018-05-04T03:22:11.283Z,15.03
2018-05-04T03:24:37.626Z,14.23
2018-05-04T03:27:04.694Z,13.77
2018-05-04T03:29:31.468Z,13.53
2018-05-04T03:31:57.989Z,13.53
2018-05-04T03:34:24.334Z,13.63
2018-05-04T03:36:51.384Z,13.33
2018-05-04T03:39:17.927Z,13.23
2018-05-04T03:41:44.666Z,12.97
2018-05-04T03:44:11.755Z,14.10
2018-05-04T03:46:38.999Z,13.87
2018-05-04T03:49:05.916Z,13.90
2018-05-04T03:51:33.145Z,12.67
2018-05-04T03:53:59.675Z,14.37
2018-05-04T03:56:26.145Z,13.83
2018-05-04T03:59:04.915Z,13.07
2018-05-04T04:01:43.152Z,13.30
2018-05-04T04:04:11.633Z,12.90
2018-05-04T04:06:38.181Z,11.00
2018-05-04T04:09:05.433Z,13.70
2018-05-04T04:11:36.586Z,13.40
2018-05-04T04:14:03.034Z,13.00
2018-05-04T04:16:30.387Z,14.17
2018-05-04T04:18:56.750Z,13.57
2018-05-04T04:21:33.541Z,13.57
2018-05-04T04:23:59.922Z,14.80
2018-05-04T04:26:32.721Z,14.03
2018-05-04T04:28:59.316Z,14.00
2018-05-04T04:31:26.039Z,14.23
2018-05-04T04:33:55.200Z,13.53
2018-05-04T04:36:21.585Z,14.87
2018-05-04T04:38:54.268Z,10.70
2018-05-04T04:41:20.483Z,14.03
2018-05-04T04:43:46.722Z,12.80
2018-05-04T04:46:12.940Z,10.87
2018-05-04T04:48:39.354Z,13.80
2018-05-04T04:51:05.658Z,13.30
2018-05-04T04:53:33.018Z,13.00
2018-05-04T04:56:00.958Z,12.80
2018-05-04T04:58:27.447Z,11.83
2018-05-04T05:01:02.063Z,12.70
2018-05-04T05:03:28.553Z,11.60
2018-05-04T05:08:44.553Z,12.17
2018-05-04T05:11:16.173Z,13.57
2018-05-04T05:13:42.566Z,13.33
2018-05-04T05:16:08.768Z,12.47
2018-05-04T05:18:38.457Z,12.63
2018-05-04T05:21:04.851Z,12.57
2018-05-04T05:23:38.711Z,15.07
2018-05-04T05:26:06.257Z,12.83
2018-05-04T05:28:32.814Z,12.77
2018-05-04T05:30:59.061Z,13.63
2018-05-04T05:33:32.231Z,12.27
2018-05-04T05:36:05.867Z,14.23
2018-05-04T05:38:32.969Z,13.07
2018-05-04T05:41:00.216Z,13.87
2018-05-04T05:43:26.919Z,13.90
2018-05-04T05:45:53.799Z,14.17
2018-05-04T05:48:22.806Z,15.13
2018-05-04T05:50:49.357Z,16.03
2018-05-04T05:53:15.827Z,13.20
2018-05-04T05:55:42.410Z,14.00
2018-05-04T05:58:09.172Z,14.90
2018-05-04T06:00:37.305Z,16.03
2018-05-04T06:03:05.445Z,15.53
2018-05-04T06:05:31.812Z,14.17
2018-05-04T06:07:58.618Z,14.57
2018-05-04T06:10:25.042Z,15.63
2018-05-04T06:12:51.720Z,14.73
2018-05-04T06:15:19.021Z,15.23
2018-05-04T06:17:46.075Z,15.03
2018-05-04T06:25:30.944Z,15.60
2018-05-04T06:27:57.559Z,17.20
2018-05-04T06:30:24.361Z,16.07
2018-05-04T06:32:51.074Z,16.53
2018-05-04T06:35:17.844Z,16.07
2018-05-04T06:37:45.570Z,16.80
2018-05-04T06:40:12.756Z,16.63
2018-05-04T06:42:39.132Z,18.30
2018-05-04T06:45:05.510Z,17.30
2018-05-04T06:47:31.880Z,20.97
2018-05-04T06:49:58.584Z,17.90
2018-05-04T06:52:25.271Z,17.60
2018-05-04T06:54:53.012Z,19.80
2018-05-04T06:57:19.789Z,18.40
2018-05-04T06:59:47.107Z,19.77
2018-05-04T07:02:13.440Z,14.23
2018-05-04T07:04:39.866Z,20.63
2018-05-04T07:07:06.448Z,20.40
2018-05-04T07:09:34.088Z,15.37
2018-05-04T07:12:02.817Z,20.00
2018-05-04T07:14:29.236Z,18.07
2018-05-04T07:16:55.612Z,19.20
2018-05-04T07:19:22.485Z,21.03
2018-05-04T07:21:57.401Z,20.27
2018-05-04T07:24:23.922Z,20.40
2018-05-04T07:26:50.145Z,19.07
2018-05-04T07:29:19.429Z,20.97
2018-05-04T07:31:45.920Z,22.33
2018-05-04T07:37:04.965Z,19.57
2018-05-04T07:39:31.357Z,21.27
2018-05-04T07:41:57.889Z,20.70
2018-05-04T07:44:24.417Z,19.50
2018-05-04T07:49:55.873Z,20.90
2018-05-04T07:52:22.514Z,21.30
2018-05-04T07:54:48.975Z,20.77
2018-05-04T07:57:16.372Z,20.67
2018-05-04T07:59:47.217Z,19.97
2018-05-04T08:02:13.739Z,20.30
2018-05-04T08:04:47.371Z,21.83
2018-05-04T08:07:13.789Z,20.80
2018-05-04T08:09:40.595Z,20.10
2018-05-04T08:12:06.938Z,21.93
2018-05-04T08:14:33.226Z,23.17
2018-05-04T08:17:10.727Z,22.30
2018-05-04T08:19:43.996Z,22.37
2018-05-04T08:22:21.621Z,23.00
2018-05-04T08:30:34.080Z,21.60
2018-05-04T08:33:02.023Z,23.00
2018-05-04T08:35:29.560Z,21.63
2018-05-04T08:37:55.861Z,22.77
2018-05-04T08:40:22.125Z,20.77
2018-05-04T08:42:50.399Z,23.17
2018-05-04T08:45:17.558Z,20.23
2018-05-04T08:47:44.777Z,23.93
2018-05-04T08:50:12.247Z,24.20
2018-05-04T08:52:38.739Z,23.13
2018-05-04T08:55:05.067Z,22.53
2018-05-04T08:57:31.697Z,23.20
2018-05-04T08:59:58.155Z,23.23
2018-05-04T09:02:25.867Z,23.33
2018-05-04T09:04:52.335Z,24.80
2018-05-04T09:07:18.999Z,23.73
2018-05-04T09:09:46.816Z,22.63
2018-05-04T09:12:20.931Z,22.50
2018-05-04T09:14:48.894Z,19.87
2018-05-04T09:17:15.513Z,24.97
2018-05-04T09:19:48.095Z,25.43
2018-05-04T09:22:15.292Z,21.57
2018-05-04T09:24:48.294Z,23.77
2018-05-04T09:27:15.115Z,26.27
2018-05-04T09:29:41.438Z,24.30
2018-05-04T09:32:08.044Z,24.23
2018-05-04T09:34:40.708Z,24.57
2018-05-04T09:37:08.306Z,25.83
2018-05-04T09:39:41.634Z,26.57
2018-05-04T09:42:08.167Z,26.80
2018-05-04T09:44:35.159Z,17.37
2018-05-04T09:47:01.542Z,25.33
2018-05-04T09:49:29.426Z,25.40
2018-05-04T09:51:55.788Z,19.07
2018-05-04T09:57:11.173Z,21.67
2018-05-04T10:08:36.775Z,24.13
2018-05-04T10:11:03.272Z,24.23
2018-05-04T10:16:32.175Z,25.77
2018-05-04T10:18:58.442Z,22.67
2018-05-04T10:24:12.401Z,25.63
2018-05-04T10:29:16.055Z,23.77
2018-05-04T10:31:42.444Z,22.50
2018-05-04T10:39:58.568Z,27.20
2018-05-04T10:42:24.831Z,27.30
2018-05-04T10:45:10.131Z,25.17
2018-05-04T10:47:51.413Z,25.77
2018-05-04T10:50:17.910Z,25.27
2018-05-04T10:52:44.665Z,21.50
2018-05-04T10:55:10.909Z,25.07
2018-05-04T10:57:38.145Z,22.10
2018-05-04T11:00:04.647Z,24.43
2018-05-04T11:02:31.069Z,26.60
2018-05-04T11:04:57.421Z,25.17
2018-05-04T11:07:23.673Z,23.20
2018-05-04T11:09:50.021Z,24.97
2018-05-04T11:12:16.559Z,26.07
2018-05-04T11:14:42.881Z,24.03
2018-05-04T11:17:09.324Z,25.80
2018-05-04T11:19:38.142Z,26.20
2018-05-04T11:22:04.694Z,23.40
2018-05-04T11:27:25.207Z,26.27
2018-05-04T11:29:58.824Z,25.97
2018-05-04T11:32:26.236Z,25.97
2018-05-04T11:34:52.445Z,24.10
2018-05-04T11:37:18.979Z,27.23
2018-05-04T11:39:46.385Z,26.93
2018-05-04T11:42:12.925Z,27.20
2018-05-04T11:44:39.372Z,26.87
2018-05-04T11:47:05.720Z,23.57
2018-05-04T11:49:32.764Z,27.20
2018-05-04T11:52:00.078Z,26.33
2018-05-04T11:54:26.490Z,25.90
2018-05-04T11:56:52.903Z,26.07
2018-05-04T11:59:19.173Z,27.37
2018-05-04T12:01:46.525Z,25.20
2018-05-04T12:04:13.149Z,25.40
2018-05-04T12:06:40.544Z,26.97
2018-05-04T12:09:07.164Z,26.00
2018-05-04T12:14:21.535Z,23.43
2018-05-04T12:16:48.111Z,26.87
2018-05-04T12:19:15.098Z,23.90
2018-05-04T12:21:41.627Z,26.37
2018-05-04T12:24:07.961Z,26.07
2018-05-04T12:26:34.297Z,28.97
2018-05-04T12:29:00.606Z,27.73
2018-05-04T12:31:36.980Z,26.03
2018-05-04T12:34:08.949Z,24.63
2018-05-04T12:36:35.186Z,25.73
2018-05-04T12:39:02.793Z,24.83
2018-05-04T12:41:28.973Z,25.77
2018-05-04T12:43:55.294Z,26.93
2018-05-04T12:46:22.401Z,26.53
2018-05-04T12:48:49.740Z,26.37
2018-05-04T12:51:16.029Z,25.63
2018-05-04T12:53:42.259Z,23.73
2018-05-04T12:59:10.058Z,27.20
2018-05-04T13:01:42.869Z,25.60
2018-05-04T13:04:09.099Z,26.50
2018-05-04T13:06:35.992Z,24.03
2018-05-04T13:11:56.633Z,24.57
2018-05-04T13:14:25.943Z,23.23
2018-05-04T13:16:53.500Z,24.10
2018-05-04T13:19:23.043Z,24.17
2018-05-04T13:21:51.202Z,24.27
2018-05-04T13:24:17.513Z,26.10
2018-05-04T13:32:47.375Z,20.73
2018-05-04T13:35:13.669Z,24.20
2018-05-04T13:40:22.049Z,22.83
2018-05-04T13:45:24.741Z,22.20
2018-05-04T13:47:51.683Z,25.47
2018-05-04T13:50:24.315Z,24.10
2018-05-04T13:52:50.668Z,23.70
2018-05-04T13:55:16.861Z,24.70
2018-05-04T13:57:43.264Z,24.90
2018-05-04T14:02:59.292Z,25.67
2018-05-04T14:08:05.272Z,26.17
2018-05-04T14:10:31.856Z,24.60
2018-05-04T14:12:58.057Z,24.87
2018-05-04T14:15:24.236Z,19.33
2018-05-04T14:28:19.569Z,25.07
2018-05-04T14:30:46.193Z,24.23
2018-05-04T14:36:02.768Z,24.30
2018-05-04T14:38:31.789Z,25.13
2018-05-04T14:40:58.334Z,25.57
2018-05-04T14:46:42.607Z,26.90
2018-05-04T14:49:08.927Z,23.77
2018-05-04T14:51:35.334Z,25.87
2018-05-04T14:54:01.602Z,25.70
2018-05-04T14:56:48.403Z,25.30
2018-05-04T14:59:14.952Z,23.90
2018-05-04T15:01:41.187Z,25.13
2018-05-04T15:04:07.359Z,26.73
2018-05-04T15:06:33.480Z,26.20
2018-05-04T15:08:59.740Z,24.93
2018-05-04T15:11:26.582Z,23.80
2018-05-04T15:13:54.001Z,19.73
2018-05-04T15:16:20.188Z,25.80
2018-05-04T15:18:46.487Z,24.83
2018-05-04T15:21:12.865Z,25.70
2018-05-04T15:23:39.401Z,23.57
2018-05-04T15:26:05.658Z,24.50
2018-05-04T15:28:31.825Z,25.53
2018-05-04T15:30:58.102Z,25.03
2018-05-04T15:33:24.443Z,19.97
2018-05-04T15:35:50.717Z,24.20
2018-05-04T15:41:15.329Z,25.50
2018-05-04T15:43:41.864Z,20.93
2018-05-04T15:46:08.499Z,24.50
2018-05-04T15:48:48.452Z,25.10
2018-05-04T15:51:21.016Z,25.83
2018-05-04T15:53:47.387Z,24.47
2018-05-04T15:56:21.317Z,24.83
2018-05-04T15:58:47.904Z,25.37
2018-05-04T16:01:14.341Z,24.70
2018-05-04T16:03:40.799Z,24.27
2018-05-04T16:06:08.852Z,24.43
2018-05-04T16:08:35.473Z,26.03
2018-05-04T16:11:02.003Z,22.03
2018-05-04T16:13:28.528Z,25.63
2018-05-04T16:15:55.185Z,24.03
2018-05-04T16:18:27.813Z,18.50
2018-05-04T16:20:54.829Z,24.07
2018-05-04T16:23:21.026Z,24.67
2018-05-04T16:25:48.423Z,24.93
2018-05-04T16:28:14.895Z,23.30
2018-05-04T16:30:41.285Z,24.20
2018-05-04T16:33:07.580Z,24.77
2018-05-04T16:35:34.816Z,24.80
2018-05-04T16:38:02.380Z,23.33
2018-05-04T16:40:28.489Z,24.27
2018-05-04T16:42:54.640Z,23.50
2018-05-04T16:45:20.983Z,23.77
2018-05-04T16:47:53.754Z,22.70
2018-05-04T16:50:20.111Z,24.70
2018-05-04T16:52:47.366Z,25.90
2018-05-04T16:55:13.741Z,23.20
2018-05-04T16:57:40.000Z,22.90
2018-05-04T17:00:07.899Z,24.70
2018-05-04T17:02:54.398Z,20.87
2018-05-04T17:05:20.660Z,22.50
2018-05-04T17:07:46.924Z,24.33
2018-05-04T17:10:13.181Z,23.67
2018-05-04T17:12:40.087Z,23.77
2018-05-04T17:15:06.578Z,24.53
2018-05-04T17:17:33.322Z,25.43
2018-05-04T17:19:59.484Z,23.50
2018-05-04T17:22:31.748Z,24.90
2018-05-04T17:24:57.894Z,25.07
2018-05-04T17:27:24.143Z,23.80
2018-05-04T17:29:51.074Z,23.83
2018-05-04T17:32:18.346Z,25.43
2018-05-04T17:34:45.402Z,25.17
2018-05-04T17:37:12.353Z,23.70
2018-05-04T17:39:38.603Z,24.60
2018-05-04T17:42:05.010Z,24.17
2018-05-04T17:44:31.328Z,23.70
2018-05-04T17:46:57.640Z,24.97
2018-05-04T17:49:23.881Z,23.63
2018-05-04T17:51:50.793Z,23.00
2018-05-04T17:54:16.988Z,24.33
2018-05-04T17:56:43.599Z,23.80
2018-05-04T17:59:09.955Z,23.60
2018-05-04T18:01:36.161Z,23.80
2018-05-04T18:04:02.336Z,23.63
2018-05-04T18:06:28.500Z,24.10
2018-05-04T18:11:35.516Z,21.90
2018-05-04T18:14:03.041Z,24.13
2018-05-04T18:16:35.960Z,22.10
2018-05-04T18:19:03.283Z,23.60
2018-05-04T18:21:33.272Z,21.83
2018-05-04T18:24:00.614Z,21.30
2018-05-04T18:26:27.197Z,20.83
2018-05-04T18:28:53.671Z,20.60
2018-05-04T18:31:20.161Z,20.13
2018-05-04T18:33:46.385Z,20.30
2018-05-04T18:36:12.594Z,19.80
2018-05-04T18:38:39.101Z,20.17
2018-05-04T18:41:05.493Z,19.27
2018-05-04T18:43:39.614Z,18.67
2018-05-04T18:46:08.073Z,19.43
2018-05-04T18:48:41.902Z,18.60
2018-05-04T18:51:09.185Z,18.07
2018-05-04T18:53:35.385Z,17.60
2018-05-04T18:56:01.851Z,19.07
2018-05-04T19:01:02.956Z,17.27
2018-05-04T19:03:29.212Z,18.80
2018-05-04T19:05:55.357Z,18.77
2018-05-04T19:08:21.481Z,19.17
2018-05-04T19:10:47.599Z,18.50
2018-05-04T19:13:21.108Z,17.83
2018-05-04T19:15:48.866Z,18.53
2018-05-04T19:18:15.212Z,18.03
2018-05-04T19:20:41.844Z,19.10
2018-05-04T19:23:08.989Z,18.13
2018-05-04T19:25:35.429Z,18.23
2018-05-04T19:28:01.619Z,20.03
2018-05-04T19:30:27.869Z,18.33
2018-05-04T19:32:54.430Z,18.73
2018-05-04T19:35:23.646Z,19.27
2018-05-04T19:37:49.936Z,18.80
2018-05-04T19:40:18.035Z,19.23
2018-05-04T19:42:45.130Z,19.13
2018-05-04T19:45:11.494Z,19.53
2018-05-04T19:47:38.110Z,19.17
2018-05-04T19:52:37.452Z,18.20
2018-05-04T19:55:14.770Z,18.87
2018-05-04T19:57:41.586Z,18.27
2018-05-04T20:00:07.880Z,19.17
2018-05-04T20:02:34.153Z,18.97
2018-05-04T20:05:00.613Z,18.83
2018-05-04T20:07:27.934Z,18.73
2018-05-04T20:09:54.797Z,15.43
2018-05-04T20:12:22.136Z,18.20
2018-05-04T20:14:48.345Z,19.83
2018-05-04T20:17:14.673Z,19.47
2018-05-04T20:19:41.033Z,18.63
2018-05-04T20:22:08.466Z,18.93
2018-05-04T20:24:35.680Z,17.20
2018-05-04T20:27:02.434Z,18.47
2018-05-04T20:29:28.609Z,19.27
2018-05-04T20:31:55.657Z,18.13
2018-05-04T20:34:22.976Z,19.53
2018-05-04T20:36:50.212Z,19.13
2018-05-04T20:39:17.262Z,18.83
2018-05-04T20:41:43.613Z,32.43
2018-05-04T20:44:10.405Z,19.63
2018-05-04T20:49:11.168Z,19.53
2018-05-04T20:51:38.198Z,18.53
2018-05-04T20:54:04.883Z,19.70
2018-05-04T20:56:31.294Z,18.47
2018-05-04T21:01:31.583Z,19.33
2018-05-04T21:03:58.901Z,20.60
2018-05-04T21:06:26.163Z,19.27
2018-05-04T21:08:58.967Z,20.33
2018-05-04T21:11:28.309Z,20.20
2018-05-04T21:13:56.429Z,20.60
2018-05-04T21:16:23.567Z,21.87
2018-05-04T21:21:51.864Z,19.47
2018-05-04T21:24:33.660Z,20.53
2018-05-04T21:27:01.469Z,20.30
2018-05-04T21:32:18.456Z,20.77
2018-05-04T21:34:44.774Z,19.40
2018-05-04T21:40:18.273Z,19.77
2018-05-04T21:45:34.257Z,20.03
2018-05-04T21:48:00.717Z,19.67
2018-05-04T21:50:32.631Z,19.90
2018-05-04T21:53:07.232Z,19.93
2018-05-04T21:56:03.955Z,19.90
2018-05-04T21:58:30.517Z,18.60
2018-05-04T22:00:57.459Z,20.07
2018-05-04T22:03:26.135Z,21.00
2018-05-04T22:05:55.260Z,21.37
2018-05-04T22:08:24.673Z,20.03
2018-05-04T22:10:53.496Z,19.17
2018-05-04T22:13:21.324Z,19.27
2018-05-04T22:16:03.785Z,20.00
2018-05-04T22:18:34.242Z,18.43
2018-05-04T22:21:00.744Z,20.63
2018-05-04T22:23:30.435Z,19.73
2018-05-04T22:25:58.328Z,19.20
2018-05-04T22:28:31.059Z,20.17
2018-05-04T22:30:58.434Z,18.90
2018-05-04T22:33:27.461Z,21.10
2018-05-04T22:35:54.264Z,19.37
2018-05-04T22:38:20.911Z,19.47
2018-05-04T22:40:47.236Z,18.97
2018-05-04T22:43:13.667Z,19.23
2018-05-04T22:45:39.976Z,19.37
2018-05-04T22:51:23.149Z,18.93
2018-05-04T22:54:05.061Z,18.27
2018-05-04T22:59:10.930Z,19.87
2018-05-04T23:04:15.124Z,20.50
2018-05-04T23:06:45.407Z,18.97
2018-05-04T23:09:13.081Z,19.80
2018-05-04T23:11:52.016Z,19.43
2018-05-04T23:14:20.859Z,20.47
2018-05-04T23:16:48.136Z,20.53
2018-05-04T23:19:18.077Z,20.47
2018-05-04T23:21:47.035Z,20.87
2018-05-04T23:24:15.499Z,21.53
2018-05-04T23:26:41.838Z,19.93
2018-05-04T23:29:13.756Z,19.00
2018-05-04T23:31:40.113Z,19.90
2018-05-04T23:34:13.397Z,19.20
2018-05-04T23:36:47.028Z,20.07
2018-05-04T23:44:47.172Z,19.97
2018-05-04T23:47:16.738Z,18.93
2018-05-04T23:49:43.357Z,23.07
2018-05-04T23:52:12.391Z,20.47
2018-05-04T23:57:19.355Z,20.23
2018-05-04T23:59:47.254Z,20.83
